createdAt,value
2018-03-08T00:01:26.562Z,94.10
2018-03-08T00:04:02.967Z,93.90
2018-03-08T00:06:38.244Z,93.80
2018-03-08T00:09:12.953Z,93.70
2018-03-08T00:11:47.765Z,94.10
2018-03-08T00:14:22.498Z,94.00
2018-03-08T00:16:56.377Z,93.90
2018-03-08T00:19:30.894Z,93.80
2018-03-08T00:22:04.740Z,93.80
2018-03-08T00:24:39.312Z,93.90
2018-03-08T00:27:13.221Z,94.20
2018-03-08T00:29:47.130Z,94.20
2018-03-08T00:32:20.848Z,94.00
2018-03-08T00:34:54.648Z,94.00
2018-03-08T00:37:28.442Z,93.90
2018-03-08T00:40:02.908Z,94.00
2018-03-08T00:42:37.112Z,93.90
2018-03-08T00:45:11.648Z,93.40
2018-03-08T00:47:46.141Z,93.70
2018-03-08T00:50:20.560Z,93.70
2018-03-08T00:52:54.242Z,93.70
2018-03-08T00:55:27.985Z,93.50
2018-03-08T00:58:03.996Z,93.40
2018-03-08T01:00:37.834Z,93.40
2018-03-08T01:03:11.627Z,93.50
2018-03-08T01:05:45.391Z,93.40
2018-03-08T01:08:19.201Z,93.30
2018-03-08T01:10:53.110Z,93.50
2018-03-08T01:13:26.927Z,93.50
2018-03-08T01:16:00.596Z,93.30
2018-03-08T01:18:34.375Z,93.00
2018-03-08T01:21:08.092Z,93.30
2018-03-08T01:23:45.217Z,93.10
2018-03-08T01:26:19.303Z,92.80
2018-03-08T01:28:52.886Z,92.40
2018-03-08T01:31:27.453Z,92.40
2018-03-08T01:34:02.135Z,92.50
2018-03-08T01:36:36.758Z,92.50
2018-03-08T01:39:11.288Z,92.80
2018-03-08T01:41:45.015Z,92.80
2018-03-08T01:44:20.288Z,92.50
2018-03-08T01:46:54.325Z,92.40
2018-03-08T01:49:28.827Z,92.70
2018-03-08T01:52:12.633Z,92.70
2018-03-08T01:54:46.520Z,92.60
2018-03-08T01:57:20.323Z,92.30
2018-03-08T01:59:54.173Z,92.60
2018-03-08T02:02:27.980Z,92.80
2018-03-08T02:05:01.766Z,93.00
2018-03-08T02:07:35.471Z,93.10
2018-03-08T02:10:10.117Z,93.30
2018-03-08T02:12:44.684Z,93.20
2018-03-08T02:15:19.268Z,93.60
2018-03-08T02:17:54.354Z,93.60
2018-03-08T02:20:27.908Z,93.60
2018-03-08T02:23:01.672Z,93.60
2018-03-08T02:25:35.402Z,93.60
2018-03-08T02:28:09.456Z,93.60
2018-03-08T02:30:43.249Z,93.60
2018-03-08T02:33:18.085Z,93.80
2018-03-08T02:35:52.848Z,93.90
2018-03-08T02:38:26.451Z,93.80
2018-03-08T02:41:01.039Z,94.10
2018-03-08T02:43:34.860Z,94.00
2018-03-08T02:46:08.526Z,94.10
2018-03-08T02:48:45.637Z,94.40
2018-03-08T02:51:19.479Z,94.40
2018-03-08T02:53:54.029Z,94.50
2018-03-08T02:56:29.114Z,94.50
2018-03-08T02:59:03.258Z,94.60
2018-03-08T03:01:40.292Z,94.40
2018-03-08T03:04:13.871Z,94.40
2018-03-08T03:06:47.678Z,94.30
2018-03-08T03:09:21.391Z,94.30
2018-03-08T03:11:55.176Z,94.30
2018-03-08T03:14:28.915Z,94.10
2018-03-08T03:17:02.670Z,94.30
2018-03-08T03:19:36.510Z,94.10
2018-03-08T03:22:10.210Z,94.10
2018-03-08T03:24:44.053Z,93.80
2018-03-08T03:27:18.640Z,93.40
2018-03-08T03:29:53.479Z,93.40
2018-03-08T03:32:27.178Z,93.40
2018-03-08T03:35:02.372Z,92.70
2018-03-08T03:37:37.680Z,91.60
2018-03-08T03:40:11.271Z,91.60
2018-03-08T03:42:45.276Z,91.50
2018-03-08T03:45:19.174Z,91.60
2018-03-08T03:47:53.324Z,91.00
2018-03-08T03:50:27.083Z,90.90
2018-03-08T03:53:00.932Z,91.40
2018-03-08T03:55:34.726Z,91.50
2018-03-08T03:58:09.265Z,91.40
2018-03-08T04:00:42.880Z,91.40
2018-03-08T04:03:17.352Z,91.60
2018-03-08T04:05:52.160Z,92.30
2018-03-08T04:08:25.926Z,92.20
2018-03-08T04:10:59.657Z,91.90
2018-03-08T04:13:33.343Z,92.00
2018-03-08T04:16:08.038Z,92.40
2018-03-08T04:18:42.203Z,92.60
2018-03-08T04:21:17.321Z,93.20
2018-03-08T04:23:52.114Z,93.70
2018-03-08T04:26:25.890Z,94.30
2018-03-08T04:29:02.731Z,94.40
2018-03-08T04:31:36.363Z,94.40
2018-03-08T04:34:10.006Z,94.20
2018-03-08T04:36:43.709Z,95.70
2018-03-08T04:39:17.491Z,96.00
2018-03-08T04:41:51.103Z,96.10
2018-03-08T04:44:24.921Z,96.30
2018-03-08T04:46:58.664Z,96.40
2018-03-08T04:49:32.448Z,96.60
2018-03-08T04:52:06.625Z,96.80
2018-03-08T04:54:40.525Z,97.00
2018-03-08T04:57:14.268Z,97.20
2018-03-08T04:59:47.881Z,97.20
2018-03-08T05:02:26.297Z,97.40
2018-03-08T05:05:00.142Z,97.40
2018-03-08T05:07:33.939Z,97.50
2018-03-08T05:10:07.714Z,97.60
2018-03-08T05:12:41.459Z,97.60
2018-03-08T05:15:16.036Z,97.80
2018-03-08T05:17:49.809Z,97.80
2018-03-08T05:20:23.716Z,97.90
2018-03-08T05:22:57.417Z,97.90
2018-03-08T05:25:32.001Z,97.90
2018-03-08T05:28:05.805Z,97.90
2018-03-08T05:30:39.519Z,97.90
2018-03-08T05:33:14.769Z,97.90
2018-03-08T05:35:48.332Z,98.00
2018-03-08T05:38:22.915Z,98.00
2018-03-08T05:40:56.488Z,98.00
2018-03-08T05:43:30.294Z,98.00
2018-03-08T05:46:04.065Z,97.60
2018-03-08T05:48:37.865Z,97.20
2018-03-08T05:51:11.540Z,97.10
2018-03-08T05:53:45.279Z,96.60
2018-03-08T05:56:19.105Z,96.70
2018-03-08T05:58:52.790Z,96.80
2018-03-08T06:01:26.597Z,96.90
2018-03-08T06:04:03.153Z,97.00
2018-03-08T06:06:38.896Z,96.60
2018-03-08T06:09:12.508Z,96.70
2018-03-08T06:11:46.356Z,96.50
2018-03-08T06:14:20.911Z,96.60
2018-03-08T06:16:54.651Z,96.50
2018-03-08T06:19:28.439Z,96.60
2018-03-08T06:22:03.064Z,96.40
2018-03-08T06:24:37.519Z,96.60
2018-03-08T06:27:11.391Z,96.60
2018-03-08T06:29:45.095Z,96.60
2018-03-08T06:32:19.790Z,96.60
2018-03-08T06:34:53.526Z,96.50
2018-03-08T06:37:29.690Z,96.20
2018-03-08T06:42:47.250Z,96.40
2018-03-08T06:45:25.461Z,96.30
2018-03-08T06:47:59.992Z,96.50
2018-03-08T06:50:36.974Z,96.40
2018-03-08T06:53:12.121Z,96.20
2018-03-08T06:55:45.806Z,96.10
2018-03-08T06:58:19.657Z,95.60
2018-03-08T07:00:53.346Z,95.60
2018-03-08T07:03:28.103Z,94.10
2018-03-08T07:06:02.781Z,95.00
2018-03-08T07:08:37.608Z,95.00
2018-03-08T07:11:14.388Z,94.70
2018-03-08T07:13:48.284Z,94.50
2018-03-08T07:16:22.705Z,94.80
2018-03-08T07:18:57.899Z,94.40
2018-03-08T07:21:32.366Z,94.80
2018-03-08T07:24:06.759Z,94.80
2018-03-08T07:26:40.457Z,93.80
2018-03-08T07:29:14.268Z,93.30
2018-03-08T07:31:48.009Z,93.30
2018-03-08T07:34:21.856Z,93.30
2018-03-08T07:36:55.723Z,92.80
2018-03-08T07:39:29.616Z,92.80
2018-03-08T07:42:03.386Z,92.00
2018-03-08T07:44:38.152Z,92.00
2018-03-08T07:47:12.744Z,91.60
2018-03-08T07:49:47.249Z,91.50
2018-03-08T07:52:20.907Z,91.10
2018-03-08T07:54:54.716Z,91.20
2018-03-08T07:57:28.476Z,91.00
2018-03-08T08:00:03.071Z,90.50
2018-03-08T08:02:37.009Z,90.50
2018-03-08T08:05:24.048Z,90.40
2018-03-08T08:08:09.505Z,90.50
2018-03-08T08:10:43.646Z,90.00
2018-03-08T08:13:18.558Z,90.50
2018-03-08T08:15:52.565Z,90.20
2018-03-08T08:18:26.881Z,89.60
2018-03-08T08:21:00.656Z,89.70
2018-03-08T08:23:35.133Z,88.40
2018-03-08T08:26:08.835Z,88.60
2018-03-08T08:28:42.970Z,86.90
2018-03-08T08:31:16.696Z,85.90
2018-03-08T08:33:51.450Z,82.00
2018-03-08T08:36:25.846Z,81.50
2018-03-08T08:39:00.312Z,81.20
2018-03-08T08:41:34.148Z,80.00
2018-03-08T08:44:08.693Z,78.50
2018-03-08T08:46:42.457Z,78.50
2018-03-08T08:49:16.172Z,79.60
2018-03-08T08:51:50.005Z,77.30
2018-03-08T08:54:23.771Z,72.60
2018-03-08T08:56:59.201Z,73.70
2018-03-08T08:59:33.031Z,74.30
2018-03-08T09:02:06.733Z,73.70
2018-03-08T09:04:42.540Z,73.70
2018-03-08T09:07:16.553Z,72.80
2018-03-08T09:09:51.479Z,72.70
2018-03-08T09:12:26.565Z,74.90
2018-03-08T09:15:00.248Z,74.90
2018-03-08T09:17:33.978Z,72.80
2018-03-08T09:20:07.825Z,67.80
2018-03-08T09:22:41.900Z,71.60
2018-03-08T09:25:15.654Z,70.10
2018-03-08T09:27:49.483Z,71.30
2018-03-08T09:30:23.287Z,68.00
2018-03-08T09:32:57.173Z,69.40
2018-03-08T09:35:31.691Z,66.40
2018-03-08T09:38:05.506Z,66.50
2018-03-08T09:40:39.343Z,65.20
2018-03-08T09:43:13.041Z,64.70
2018-03-08T09:45:46.926Z,64.90
2018-03-08T09:48:21.089Z,65.30
2018-03-08T09:50:55.653Z,61.00
2018-03-08T09:53:30.331Z,63.00
2018-03-08T09:56:05.204Z,62.30
2018-03-08T09:58:39.609Z,62.70
2018-03-08T10:01:13.487Z,59.00
2018-03-08T10:03:47.175Z,57.40
2018-03-08T10:06:21.052Z,56.80
2018-03-08T10:08:54.824Z,51.00
2018-03-08T10:11:28.602Z,53.10
2018-03-08T10:14:03.289Z,49.70
2018-03-08T10:16:38.135Z,49.60
2018-03-08T10:19:11.697Z,48.10
2018-03-08T10:21:45.421Z,47.20
2018-03-08T10:24:19.236Z,47.40
2018-03-08T10:26:52.981Z,48.00
2018-03-08T10:29:26.705Z,45.70
2018-03-08T10:32:00.363Z,42.70
2018-03-08T10:34:34.869Z,42.80
2018-03-08T10:37:08.582Z,42.30
2018-03-08T10:39:43.200Z,40.00
2018-03-08T10:42:17.900Z,39.50
2018-03-08T10:44:51.836Z,39.30
2018-03-08T10:47:26.754Z,38.10
2018-03-08T10:50:00.557Z,34.40
2018-03-08T10:52:34.424Z,36.30
2018-03-08T10:55:08.164Z,36.10
2018-03-08T10:57:43.357Z,33.10
2018-03-08T11:00:17.375Z,32.80
2018-03-08T11:02:52.799Z,31.70
2018-03-08T11:05:28.810Z,32.20
2018-03-08T11:08:03.272Z,32.20
2018-03-08T11:10:37.785Z,31.70
2018-03-08T11:13:12.554Z,32.20
2018-03-08T11:15:46.353Z,32.30
2018-03-08T11:18:20.168Z,29.10
2018-03-08T11:20:53.988Z,29.20
2018-03-08T11:23:28.309Z,28.70
2018-03-08T11:26:02.708Z,28.10
2018-03-08T11:28:38.234Z,26.10
2018-03-08T11:31:12.036Z,26.10
2018-03-08T11:33:47.684Z,25.40
2018-03-08T11:36:21.609Z,25.30
2018-03-08T11:38:56.951Z,23.90
2018-03-08T11:41:30.769Z,23.20
2018-03-08T11:44:04.358Z,22.40
2018-03-08T11:46:38.163Z,22.50
2018-03-08T11:49:11.761Z,20.70
2018-03-08T11:51:46.258Z,21.10
2018-03-08T11:54:20.748Z,19.10
2018-03-08T11:56:54.645Z,19.00
2018-03-08T11:59:28.328Z,20.50
2018-03-08T12:02:02.158Z,17.80
2018-03-08T12:04:36.018Z,18.60
2018-03-08T12:07:09.898Z,18.70
2018-03-08T12:09:43.784Z,18.50
2018-03-08T12:12:17.500Z,18.40
2018-03-08T12:14:51.171Z,17.60
2018-03-08T12:17:26.631Z,17.50
2018-03-08T12:20:01.338Z,16.60
2018-03-08T12:22:35.827Z,16.60
2018-03-08T12:25:09.498Z,17.40
2018-03-08T12:27:43.893Z,16.50
2018-03-08T12:30:21.208Z,15.20
2018-03-08T12:32:54.828Z,16.10
2018-03-08T12:35:28.530Z,16.70
2018-03-08T12:38:02.313Z,16.60
2018-03-08T12:40:36.883Z,16.90
2018-03-08T12:43:10.656Z,16.80
2018-03-08T12:45:44.585Z,16.80
2018-03-08T12:48:18.366Z,17.90
2018-03-08T12:50:52.967Z,18.20
2018-03-08T12:53:28.571Z,18.20
2018-03-08T12:56:03.252Z,18.20
2018-03-08T12:58:37.088Z,18.50
2018-03-08T13:01:11.835Z,18.10
2018-03-08T13:03:45.823Z,18.10
2018-03-08T13:06:21.839Z,18.10
2018-03-08T13:08:57.073Z,18.10
2018-03-08T13:11:31.641Z,18.40
2018-03-08T13:14:05.426Z,18.10
2018-03-08T13:16:40.090Z,19.10
2018-03-08T13:19:15.012Z,18.10
2018-03-08T13:21:48.919Z,18.10
2018-03-08T13:24:22.728Z,18.20
2018-03-08T13:26:57.435Z,18.30
2018-03-08T13:29:31.729Z,17.10
2018-03-08T13:32:05.471Z,17.60
2018-03-08T13:34:40.156Z,16.50
2018-03-08T13:37:14.767Z,17.00
2018-03-08T13:39:50.250Z,16.80
2018-03-08T13:42:24.049Z,15.60
2018-03-08T13:44:57.828Z,15.20
2018-03-08T13:47:33.249Z,14.00
2018-03-08T13:50:07.189Z,12.00
2018-03-08T13:52:42.360Z,6.20
2018-03-08T13:55:16.157Z,6.20
2018-03-08T13:57:50.698Z,5.20
2018-03-08T14:00:25.456Z,5.20
2018-03-08T14:02:59.323Z,5.00
2018-03-08T14:05:33.885Z,6.00
2018-03-08T14:08:08.631Z,8.30
2018-03-08T14:10:43.056Z,8.40
2018-03-08T14:13:17.809Z,7.90
2018-03-08T14:15:51.456Z,10.10
2018-03-08T14:18:25.269Z,12.00
2018-03-08T14:20:59.791Z,13.10
2018-03-08T14:23:34.540Z,13.00
2018-03-08T14:26:08.246Z,14.30
2018-03-08T14:28:42.029Z,14.70
2018-03-08T14:31:15.968Z,15.00
2018-03-08T14:33:49.808Z,14.90
2018-03-08T14:36:24.947Z,14.10
2018-03-08T14:38:58.652Z,13.80
2018-03-08T14:41:32.399Z,14.40
2018-03-08T14:44:06.547Z,14.10
2018-03-08T14:46:40.178Z,14.50
2018-03-08T14:49:14.015Z,15.10
2018-03-08T14:51:47.878Z,15.30
2018-03-08T14:54:21.705Z,16.00
2018-03-08T14:56:55.532Z,16.30
2018-03-08T14:59:29.395Z,17.10
2018-03-08T15:02:03.898Z,17.00
2018-03-08T15:04:37.530Z,16.80
2018-03-08T15:07:12.086Z,18.10
2018-03-08T15:09:46.056Z,18.00
2018-03-08T15:12:19.825Z,18.00
2018-03-08T15:14:54.365Z,17.90
2018-03-08T15:17:28.130Z,17.90
2018-03-08T15:20:01.903Z,18.90
2018-03-08T15:22:35.697Z,19.00
2018-03-08T15:25:09.762Z,20.00
2018-03-08T15:27:43.567Z,21.20
2018-03-08T15:30:18.069Z,21.60
2018-03-08T15:32:51.967Z,21.60
2018-03-08T15:35:25.528Z,21.80
2018-03-08T15:37:59.196Z,21.70
2018-03-08T15:40:32.870Z,21.70
2018-03-08T15:43:06.677Z,22.00
2018-03-08T15:45:40.412Z,22.00
2018-03-08T15:48:14.106Z,21.60
2018-03-08T15:50:47.803Z,22.20
2018-03-08T15:53:21.577Z,23.70
2018-03-08T15:55:55.766Z,24.00
2018-03-08T15:58:29.572Z,25.70
2018-03-08T16:01:04.668Z,29.80
2018-03-08T16:03:39.216Z,30.90
2018-03-08T16:06:12.856Z,30.90
2018-03-08T16:08:59.073Z,35.50
2018-03-08T16:11:33.624Z,40.90
2018-03-08T16:14:07.526Z,41.00
2018-03-08T16:16:41.255Z,40.80
2018-03-08T16:19:15.043Z,41.30
2018-03-08T16:21:48.950Z,42.80
2018-03-08T16:24:22.534Z,43.40
2018-03-08T16:26:56.321Z,45.80
2018-03-08T16:29:30.162Z,44.90
2018-03-08T16:32:03.926Z,47.10
2018-03-08T16:34:37.633Z,46.20
2018-03-08T16:37:12.301Z,47.10
2018-03-08T16:39:45.935Z,46.40
2018-03-08T16:42:19.687Z,49.10
2018-03-08T16:44:54.277Z,48.10
2018-03-08T16:47:28.140Z,49.60
2018-03-08T16:50:01.921Z,53.20
2018-03-08T16:52:36.488Z,56.10
2018-03-08T16:55:10.090Z,55.50
2018-03-08T16:57:44.682Z,52.70
2018-03-08T17:00:19.295Z,51.60
2018-03-08T17:02:53.921Z,50.40
2018-03-08T17:05:27.659Z,50.30
2018-03-08T17:08:01.545Z,49.60
2018-03-08T17:10:36.146Z,47.60
2018-03-08T17:13:11.091Z,47.80
2018-03-08T17:15:45.125Z,46.60
2018-03-08T17:18:18.847Z,48.10
2018-03-08T17:20:53.396Z,47.00
2018-03-08T17:23:27.177Z,46.60
2018-03-08T17:26:01.172Z,46.80
2018-03-08T17:28:34.913Z,49.00
2018-03-08T17:31:09.521Z,52.40
2018-03-08T17:33:43.116Z,54.80
2018-03-08T17:36:16.982Z,56.60
2018-03-08T17:38:51.430Z,59.60
2018-03-08T17:41:25.225Z,59.60
2018-03-08T17:43:58.979Z,60.80
2018-03-08T17:46:32.665Z,59.30
2018-03-08T17:49:06.465Z,58.20
2018-03-08T17:51:40.243Z,59.00
2018-03-08T17:54:14.009Z,57.30
2018-03-08T17:56:47.805Z,57.30
2018-03-08T17:59:21.460Z,56.70
2018-03-08T18:01:55.748Z,56.40
2018-03-08T18:04:29.691Z,55.80
2018-03-08T18:07:04.746Z,55.90
2018-03-08T18:09:38.552Z,56.00
2018-03-08T18:12:12.375Z,57.30
2018-03-08T18:14:46.181Z,57.30
2018-03-08T18:17:21.037Z,57.20
2018-03-08T18:19:54.680Z,57.20
2018-03-08T18:22:28.538Z,57.20
2018-03-08T18:25:02.318Z,57.20
2018-03-08T18:27:36.101Z,57.20
2018-03-08T18:30:10.021Z,57.60
2018-03-08T18:32:43.865Z,58.20
2018-03-08T18:35:18.966Z,59.80
2018-03-08T18:37:52.713Z,59.80
2018-03-08T18:40:26.387Z,59.10
2018-03-08T18:43:00.061Z,57.90
2018-03-08T18:45:33.863Z,56.60
2018-03-08T18:48:09.553Z,57.10
2018-03-08T18:50:43.396Z,57.10
2018-03-08T18:53:17.448Z,56.80
2018-03-08T18:55:51.263Z,55.70
2018-03-08T18:58:27.702Z,55.80
2018-03-08T19:01:02.536Z,56.60
2018-03-08T19:03:36.291Z,60.00
2018-03-08T19:06:10.866Z,87.30
2018-03-08T19:08:44.597Z,93.70
2018-03-08T19:11:18.209Z,96.30
2018-03-08T19:13:51.809Z,97.00
2018-03-08T19:16:26.326Z,97.60
2018-03-08T19:19:00.137Z,97.50
2018-03-08T19:21:34.639Z,97.20
2018-03-08T19:24:08.327Z,97.20
2018-03-08T19:26:42.077Z,97.30
2018-03-08T19:29:15.859Z,96.60
2018-03-08T19:31:51.150Z,96.60
2018-03-08T19:34:24.787Z,96.80
2018-03-08T19:36:59.743Z,96.60
2018-03-08T19:39:33.424Z,96.60
2018-03-08T19:42:07.173Z,95.80
2018-03-08T19:44:41.013Z,95.10
2018-03-08T19:47:15.250Z,94.90
2018-03-08T19:49:50.650Z,95.00
2018-03-08T19:52:25.273Z,95.10
2018-03-08T19:55:00.701Z,95.10
2018-03-08T19:57:34.530Z,94.70
2018-03-08T20:00:08.780Z,94.40
2018-03-08T20:02:43.346Z,94.50
2018-03-08T20:05:17.134Z,94.50
2018-03-08T20:07:50.720Z,94.70
2018-03-08T20:10:24.480Z,94.40
2018-03-08T20:12:58.367Z,94.70
2018-03-08T20:15:32.885Z,95.20
2018-03-08T20:18:07.554Z,95.40
2018-03-08T20:20:41.292Z,95.40
2018-03-08T20:23:14.979Z,95.50
2018-03-08T20:25:49.555Z,96.10
2018-03-08T20:28:24.185Z,96.10
2018-03-08T20:30:58.006Z,96.20
2018-03-08T20:33:32.575Z,96.50
2018-03-08T20:36:07.201Z,96.50
2018-03-08T20:38:43.357Z,96.20
2018-03-08T20:41:17.034Z,96.00
2018-03-08T20:43:50.827Z,95.10
2018-03-08T20:46:24.942Z,94.40
2018-03-08T20:48:58.703Z,94.00
2018-03-08T20:51:33.461Z,93.20
2018-03-08T20:54:08.105Z,93.10
2018-03-08T20:56:42.401Z,91.80
2018-03-08T20:59:16.214Z,90.70
2018-03-08T21:01:49.806Z,90.70
2018-03-08T21:04:23.655Z,90.50
2018-03-08T21:06:57.512Z,89.40
2018-03-08T21:09:31.184Z,88.90
2018-03-08T21:12:05.837Z,88.90
2018-03-08T21:14:39.508Z,89.20
2018-03-08T21:17:13.346Z,88.90
2018-03-08T21:19:47.241Z,90.10
2018-03-08T21:22:21.778Z,88.00
2018-03-08T21:24:56.227Z,86.80
2018-03-08T21:27:30.043Z,86.40
2018-03-08T21:30:03.849Z,86.60
2018-03-08T21:32:38.240Z,85.00
2018-03-08T21:35:12.726Z,84.70
2018-03-08T21:37:46.461Z,85.00
2018-03-08T21:40:20.140Z,84.10
2018-03-08T21:42:53.944Z,83.30
2018-03-08T21:45:27.713Z,82.30
2018-03-08T21:48:01.446Z,83.20
2018-03-08T21:50:35.170Z,80.80
2018-03-08T21:53:09.954Z,81.10
2018-03-08T21:55:43.603Z,80.40
2018-03-08T21:58:17.370Z,80.80
2018-03-08T22:00:51.098Z,80.80
2018-03-08T22:03:24.911Z,81.40
2018-03-08T22:05:58.722Z,80.90
2018-03-08T22:08:32.479Z,80.30
2018-03-08T22:11:07.022Z,79.40
2018-03-08T22:13:41.545Z,79.40
2018-03-08T22:16:15.294Z,79.20
2018-03-08T22:18:49.038Z,80.10
2018-03-08T22:21:22.829Z,78.40
2018-03-08T22:23:56.588Z,78.30
2018-03-08T22:26:30.491Z,78.40
2018-03-08T22:29:04.178Z,79.10
2018-03-08T22:31:37.946Z,77.80
2018-03-08T22:34:11.701Z,77.50
2018-03-08T22:36:45.320Z,77.70
2018-03-08T22:39:19.030Z,76.60
2018-03-08T22:41:53.608Z,75.50
2018-03-08T22:44:27.935Z,76.90
2018-03-08T22:47:01.765Z,76.90
2018-03-08T22:49:35.379Z,78.90
2018-03-08T22:52:09.229Z,78.30
2018-03-08T22:54:43.901Z,76.90
2018-03-08T22:57:18.398Z,76.30
2018-03-08T22:59:52.093Z,76.20
2018-03-08T23:02:31.611Z,75.60
2018-03-08T23:05:05.433Z,76.20
2018-03-08T23:07:39.240Z,75.50
2018-03-08T23:10:13.772Z,73.50
2018-03-08T23:12:47.658Z,73.20
2018-03-08T23:15:22.180Z,75.50
2018-03-08T23:17:55.759Z,75.60
2018-03-08T23:20:29.519Z,74.50
2018-03-08T23:23:04.086Z,75.30
2018-03-08T23:25:37.896Z,75.30
2018-03-08T23:28:12.482Z,75.80
2018-03-08T23:30:46.234Z,75.70
2018-03-08T23:33:19.968Z,76.60
2018-03-08T23:35:53.784Z,76.20
2018-03-08T23:38:27.565Z,75.70
2018-03-08T23:43:40.587Z,75.10
2018-03-08T23:46:14.365Z,73.40
2018-03-08T23:48:48.041Z,75.30
2018-03-08T23:51:21.842Z,75.20
2018-03-08T23:53:55.586Z,74.80
2018-03-08T23:56:29.376Z,74.60
2018-03-08T23:59:03.104Z,75.20
